createdAt,value
2018-05-02T13:10:52.457Z,84.75
2018-05-02T13:11:52.302Z,85.24
2018-05-02T13:12:52.291Z,86.21
2018-05-02T13:17:35.867Z,84.94
2018-05-02T13:18:35.867Z,85.92
2018-05-02T13:19:35.858Z,84.66
2018-05-02T13:20:35.853Z,83.82
2018-05-02T13:21:35.849Z,83.00
2018-05-02T13:22:35.860Z,83.78
2018-05-02T13:23:35.842Z,83.88
2018-05-02T13:24:35.857Z,85.39
2018-05-02T13:25:35.848Z,86.55
2018-05-02T13:26:36.151Z,86.26
2018-05-02T13:27:35.847Z,84.75
2018-05-02T13:28:35.837Z,83.72
2018-05-02T13:29:36.034Z,83.63
2018-05-02T13:30:35.829Z,84.01
2018-05-02T13:31:35.822Z,83.53
2018-05-02T13:32:35.833Z,83.72
2018-05-02T13:33:35.824Z,83.63
2018-05-02T13:47:02.989Z,81.04
2018-05-02T13:48:02.989Z,80.76
2018-05-02T13:49:02.985Z,80.76
2018-05-02T13:50:02.985Z,80.30
2018-05-02T13:51:02.982Z,78.85
2018-05-02T13:52:02.980Z,78.30
2018-05-02T13:53:02.977Z,78.27
2018-05-02T13:54:02.977Z,79.39
2018-05-02T13:55:02.975Z,79.78
2018-05-02T13:56:02.971Z,80.17
2018-05-02T13:57:02.973Z,79.30
2018-05-02T13:58:02.968Z,80.66
2018-05-02T13:59:02.965Z,80.46
2018-05-02T14:00:02.965Z,79.92
2018-05-02T14:01:03.006Z,79.43
2018-05-02T14:02:02.962Z,78.66
2018-05-02T14:03:02.959Z,77.14
2018-05-02T14:04:02.956Z,77.04
2018-05-02T14:05:02.958Z,76.94
2018-05-02T14:06:02.955Z,75.68
2018-05-02T14:07:02.957Z,75.78
2018-05-02T14:08:02.951Z,74.61
2018-05-02T14:09:02.951Z,73.96
2018-05-02T14:10:02.951Z,74.16
2018-05-02T14:11:02.945Z,73.96
2018-05-02T14:12:02.948Z,74.06
2018-05-02T14:13:02.943Z,75.13
2018-05-02T14:14:02.942Z,74.10
2018-05-02T14:15:02.939Z,73.12
2018-05-02T14:16:02.953Z,73.90
2018-05-02T14:17:02.937Z,73.61
2018-05-02T14:18:02.942Z,73.86
2018-05-02T14:19:02.955Z,73.47
2018-05-02T14:20:02.935Z,73.57
2018-05-02T14:21:02.932Z,73.67
2018-05-02T14:22:02.932Z,74.06
2018-05-02T14:23:02.930Z,74.16
2018-05-02T14:24:02.928Z,73.73
2018-05-02T14:25:02.927Z,74.22
2018-05-02T14:26:02.927Z,74.71
2018-05-02T14:27:02.925Z,74.90
2018-05-02T14:28:02.924Z,76.55
2018-05-02T14:29:02.923Z,74.80
2018-05-02T14:30:02.923Z,75.48
2018-05-02T14:31:02.918Z,76.07
2018-05-02T14:32:02.922Z,75.68
2018-05-02T14:33:02.917Z,76.26
2018-05-02T14:34:02.916Z,76.17
2018-05-02T14:35:02.915Z,75.58
2018-05-02T14:36:02.912Z,76.17
2018-05-02T14:37:02.911Z,74.61
2018-05-02T14:38:02.947Z,74.96
2018-05-02T14:39:02.907Z,76.03
2018-05-02T14:40:02.910Z,76.12
2018-05-02T14:41:02.906Z,75.54
2018-05-02T14:42:02.903Z,75.29
2018-05-02T14:43:02.902Z,73.99
2018-05-02T14:44:02.900Z,74.18
2018-05-02T14:45:02.903Z,73.83
2018-05-02T14:46:02.902Z,73.89
2018-05-02T14:47:02.898Z,73.40
2018-05-02T14:48:02.910Z,72.01
2018-05-02T14:49:02.893Z,73.08
2018-05-02T14:50:02.892Z,73.56
2018-05-02T14:51:02.889Z,74.60
2018-05-02T14:52:02.887Z,74.40
2018-05-02T14:53:02.884Z,74.50
2018-05-02T14:54:02.883Z,74.88
2018-05-02T14:55:02.881Z,75.95
2018-05-02T14:56:02.880Z,75.67
2018-05-02T14:57:02.879Z,75.85
2018-05-02T14:58:02.876Z,76.92
2018-05-02T14:59:02.872Z,78.44
2018-05-02T15:00:02.872Z,79.32
2018-05-02T15:01:02.869Z,79.22
2018-05-02T15:02:02.958Z,79.22
2018-05-02T15:03:02.873Z,79.80
2018-05-02T15:04:02.863Z,79.99
2018-05-02T15:05:02.862Z,79.80
2018-05-02T15:06:02.859Z,79.71
2018-05-02T15:07:02.856Z,79.61
2018-05-02T15:08:02.854Z,79.90
2018-05-02T15:09:02.854Z,78.64
2018-05-02T15:10:03.050Z,77.95
2018-05-02T15:11:02.848Z,77.28
2018-05-02T15:12:02.847Z,77.37
2018-05-02T15:13:02.843Z,77.67
2018-05-02T15:14:02.841Z,76.50
2018-05-02T15:15:02.841Z,75.82
2018-05-02T15:16:02.835Z,75.82
2018-05-02T15:17:02.836Z,76.31
2018-05-02T15:18:02.848Z,75.72
2018-05-02T15:19:02.832Z,82.28
2018-05-02T15:20:02.826Z,83.74
2018-05-02T15:21:02.822Z,85.88
2018-05-02T15:22:02.821Z,87.04
2018-05-02T15:23:02.818Z,87.43
2018-05-02T15:24:02.867Z,88.49
2018-05-02T15:25:02.813Z,89.13
2018-05-02T15:26:02.809Z,89.90
2018-05-02T15:27:02.807Z,90.97
2018-05-02T15:28:02.804Z,92.67
2018-05-02T15:29:02.802Z,93.26
2018-05-02T15:30:02.797Z,95.10
2018-05-02T15:31:02.798Z,96.12
2018-05-02T15:32:02.793Z,97.18
2018-05-02T15:33:02.789Z,97.86
2018-05-02T15:34:02.785Z,98.73
2018-05-02T15:35:02.780Z,99.99
2018-05-02T15:36:02.778Z,99.99
2018-05-02T15:37:02.774Z,99.99
2018-05-02T15:38:02.771Z,99.99
2018-05-02T15:39:02.770Z,99.99
2018-05-02T15:40:02.764Z,99.99
2018-05-02T15:41:02.760Z,99.99
2018-05-02T15:42:02.757Z,99.99
2018-05-02T15:43:02.751Z,99.99
2018-05-02T15:44:02.750Z,99.99
2018-05-02T15:45:02.746Z,99.99
2018-05-02T15:46:02.742Z,99.99
2018-05-02T15:47:02.738Z,99.99
2018-05-02T15:48:02.740Z,99.99
2018-05-02T15:49:02.729Z,99.99
2018-05-02T15:50:02.727Z,99.99
2018-05-02T15:51:02.724Z,99.99
2018-05-02T15:52:02.763Z,99.99
2018-05-02T15:53:02.715Z,99.99
2018-05-02T15:54:02.711Z,99.99
2018-05-02T15:55:02.706Z,99.99
2018-05-02T15:56:02.750Z,99.99
2018-05-02T15:57:02.697Z,99.99
2018-05-02T15:58:02.796Z,99.99
2018-05-02T15:59:02.690Z,99.99
2018-05-02T16:00:02.687Z,99.99
2018-05-02T16:01:02.682Z,99.99
2018-05-02T16:02:02.711Z,99.99
2018-05-02T16:03:02.680Z,99.99
2018-05-02T16:04:02.679Z,99.99
2018-05-02T16:05:02.674Z,99.99
2018-05-02T16:06:02.669Z,99.99
2018-05-02T16:07:02.664Z,99.99
2018-05-02T16:08:02.663Z,99.99
2018-05-02T16:09:02.655Z,99.99
2018-05-02T16:10:02.736Z,99.99
2018-05-02T16:11:02.647Z,99.99
2018-05-02T16:12:02.648Z,99.99
2018-05-02T16:13:02.639Z,99.99
2018-05-02T16:14:02.640Z,99.99
2018-05-02T16:15:02.631Z,99.99
2018-05-02T16:16:02.631Z,99.99
2018-05-02T16:17:02.622Z,99.99
2018-05-02T16:18:02.619Z,99.99
2018-05-02T16:19:02.615Z,99.99
2018-05-02T16:20:02.613Z,99.99
2018-05-02T16:21:02.606Z,99.99
2018-05-02T16:22:02.618Z,99.99
2018-05-02T16:23:02.597Z,99.99
2018-05-02T16:24:02.594Z,99.99
2018-05-02T16:25:02.590Z,99.99
2018-05-02T16:26:02.585Z,99.99
2018-05-02T16:27:02.588Z,99.99
2018-05-02T16:28:02.575Z,99.99
2018-05-02T16:29:02.573Z,99.99
2018-05-02T16:30:02.569Z,99.99
2018-05-02T16:31:02.565Z,99.99
2018-05-02T16:32:02.559Z,99.99
2018-05-02T16:33:02.553Z,99.99
2018-05-02T16:34:02.551Z,99.99
2018-05-02T16:35:02.546Z,99.99
2018-05-02T16:36:02.541Z,99.99
2018-05-02T16:37:02.538Z,99.99
2018-05-02T16:38:02.536Z,99.99
2018-05-02T16:39:02.545Z,99.99
2018-05-02T16:40:02.524Z,99.99
2018-05-02T16:41:02.519Z,99.99
2018-05-02T16:42:02.517Z,99.99
2018-05-02T16:43:02.510Z,99.99
2018-05-02T16:44:02.508Z,99.99
2018-05-02T16:45:02.520Z,99.99
2018-05-02T16:46:02.499Z,99.99
2018-05-02T16:47:02.494Z,99.99
2018-05-02T16:48:02.489Z,99.99
2018-05-02T16:49:02.575Z,99.99
2018-05-02T16:50:02.486Z,99.99
2018-05-02T16:51:02.484Z,99.99
2018-05-02T16:52:02.475Z,99.99
2018-05-02T16:53:02.470Z,99.99
2018-05-02T16:54:02.465Z,99.99
2018-05-02T16:55:02.460Z,99.99
2018-05-02T16:56:02.457Z,99.99
2018-05-02T16:57:02.454Z,99.99
2018-05-02T16:58:02.452Z,99.99
2018-05-02T16:59:02.445Z,99.99
2018-05-02T17:00:02.592Z,99.99
2018-05-02T17:01:02.437Z,99.99
2018-05-02T17:02:02.432Z,99.99
2018-05-02T17:03:02.428Z,99.99
2018-05-02T17:04:02.510Z,99.99
2018-05-02T17:05:02.422Z,99.99
2018-05-02T17:06:02.417Z,99.99
2018-05-02T17:07:02.411Z,99.99
2018-05-02T17:08:02.407Z,99.99
2018-05-02T17:09:02.418Z,99.99
2018-05-02T17:10:02.401Z,99.99
2018-05-02T17:11:02.396Z,99.99
2018-05-02T17:12:02.396Z,99.99
2018-05-02T17:13:02.388Z,99.99
2018-05-02T17:14:02.384Z,99.99
2018-05-02T17:15:02.378Z,99.99
2018-05-02T17:16:02.375Z,99.99
2018-05-02T17:17:02.369Z,99.99
2018-05-02T17:18:02.365Z,99.99
2018-05-02T17:19:02.366Z,99.99
2018-05-02T17:20:02.357Z,99.99
2018-05-02T17:21:02.351Z,99.99
2018-05-02T17:22:02.393Z,99.99
2018-05-02T17:23:02.341Z,99.99
2018-05-02T17:24:02.337Z,99.99
2018-05-02T17:25:02.334Z,99.99
2018-05-02T17:26:02.331Z,99.99
2018-05-02T17:27:02.327Z,99.99
2018-05-02T17:28:02.324Z,99.99
2018-05-02T17:29:02.320Z,99.99
2018-05-02T17:30:02.327Z,99.99
2018-05-02T17:31:02.315Z,99.99
2018-05-02T17:32:02.305Z,99.99
2018-05-02T17:33:02.301Z,99.99
2018-05-02T17:34:02.297Z,99.99
2018-05-02T17:35:02.291Z,99.99
2018-05-02T17:36:02.287Z,99.99
2018-05-02T17:37:02.283Z,99.99
2018-05-02T17:38:02.279Z,99.99
2018-05-02T17:39:02.274Z,99.99
2018-05-02T17:40:02.268Z,99.99
2018-05-02T17:41:02.264Z,99.99
2018-05-02T17:42:02.261Z,99.99
2018-05-02T17:43:02.255Z,99.99
2018-05-02T17:44:02.251Z,99.99
2018-05-02T17:45:02.324Z,99.99
2018-05-02T17:46:02.244Z,99.99
2018-05-02T17:47:02.237Z,99.99
2018-05-02T17:48:02.235Z,99.99
2018-05-02T17:49:02.226Z,99.99
2018-05-02T17:50:02.223Z,99.99
2018-05-02T17:51:02.217Z,99.99
2018-05-02T17:52:02.213Z,99.99
2018-05-02T17:53:02.210Z,99.99
2018-05-02T17:54:02.204Z,99.99
2018-05-02T17:55:02.199Z,99.99
2018-05-02T17:56:02.203Z,99.99
2018-05-02T17:57:02.189Z,99.99
2018-05-02T17:58:02.184Z,99.99
2018-05-02T17:59:02.180Z,99.99
2018-05-02T18:00:02.376Z,99.99
2018-05-02T18:01:02.169Z,99.99
2018-05-02T18:02:02.166Z,99.99
2018-05-02T18:03:02.161Z,99.99
2018-05-02T18:04:02.155Z,99.99
2018-05-02T18:05:02.152Z,99.99
2018-05-02T18:06:02.146Z,99.99
2018-05-02T18:07:02.144Z,99.99
2018-05-02T18:08:02.135Z,99.99
2018-05-02T18:09:02.133Z,99.99
2018-05-02T18:10:02.127Z,99.99
2018-05-02T18:11:02.121Z,99.99
2018-05-02T18:12:02.115Z,99.99
2018-05-02T18:13:02.113Z,99.99
2018-05-02T18:14:02.108Z,99.99
2018-05-02T18:15:02.103Z,99.99
2018-05-02T18:16:02.103Z,99.99
2018-05-02T18:17:02.091Z,99.99
2018-05-02T18:18:02.086Z,99.99
2018-05-02T18:19:02.073Z,99.99
2018-05-02T18:20:02.067Z,99.99
2018-05-02T18:21:02.064Z,99.99
2018-05-02T18:22:02.056Z,99.99
2018-05-02T18:23:02.053Z,99.99
2018-05-02T18:24:02.049Z,99.99
2018-05-02T18:25:02.049Z,99.99
2018-05-02T18:26:02.037Z,99.99
2018-05-02T18:27:02.032Z,99.99
2018-05-02T18:28:02.044Z,99.99
2018-05-02T18:29:02.024Z,99.99
2018-05-02T18:30:02.018Z,99.99
2018-05-02T18:31:02.012Z,99.99
2018-05-02T18:32:02.008Z,99.99
2018-05-02T18:33:02.002Z,99.99
2018-05-02T18:34:01.997Z,99.99
2018-05-02T18:35:01.993Z,99.99
2018-05-02T18:36:01.988Z,99.99
2018-05-02T18:37:01.983Z,99.99
2018-05-02T18:38:01.978Z,99.99
2018-05-02T18:39:01.972Z,99.99
2018-05-02T18:40:01.969Z,99.99
2018-05-02T18:41:01.963Z,99.99
2018-05-02T18:42:01.960Z,99.99
2018-05-02T18:43:01.956Z,99.99
2018-05-02T18:44:01.948Z,99.99
2018-05-02T18:45:01.945Z,99.99
2018-05-02T18:46:01.939Z,99.99
2018-05-02T18:47:01.936Z,99.99
2018-05-02T18:48:01.932Z,99.99
2018-05-02T18:49:01.923Z,99.99
2018-05-02T18:50:01.922Z,99.99
2018-05-02T18:51:01.912Z,99.99
2018-05-02T18:52:01.909Z,99.99
2018-05-02T18:53:01.903Z,99.99
2018-05-02T18:54:01.897Z,99.99
2018-05-02T18:55:01.892Z,99.99
2018-05-02T18:56:01.887Z,99.99
2018-05-02T18:57:01.883Z,99.99
2018-05-02T18:58:01.880Z,99.99
2018-05-02T18:59:01.873Z,99.99
2018-05-02T19:00:01.869Z,99.99
2018-05-02T19:01:01.863Z,99.99
2018-05-02T19:02:01.858Z,99.99
2018-05-02T19:03:01.852Z,99.99
2018-05-02T19:04:01.845Z,99.99
2018-05-02T19:05:01.842Z,99.99
2018-05-02T19:06:01.837Z,99.99
2018-05-02T19:07:01.829Z,99.99
2018-05-02T19:08:01.825Z,99.99
2018-05-02T19:09:01.819Z,99.99
2018-05-02T19:10:01.817Z,99.99
2018-05-02T19:11:01.808Z,99.99
2018-05-02T19:12:01.803Z,99.99
2018-05-02T19:13:01.799Z,99.99
2018-05-02T19:14:01.803Z,99.99
2018-05-02T19:15:01.790Z,99.99
2018-05-02T19:16:01.782Z,99.99
2018-05-02T19:17:01.778Z,99.99
2018-05-02T19:18:01.772Z,99.99
2018-05-02T19:19:01.769Z,99.99
2018-05-02T19:20:01.762Z,99.99
2018-05-02T19:21:01.757Z,99.99
2018-05-02T19:22:01.755Z,99.99
2018-05-02T19:23:01.745Z,99.99
2018-05-02T19:24:01.788Z,99.99
2018-05-02T19:25:01.737Z,99.99
2018-05-02T19:26:01.729Z,99.99
2018-05-02T19:27:01.724Z,99.99
2018-05-02T19:28:01.717Z,99.99
2018-05-02T19:29:01.712Z,99.99
2018-05-02T19:30:01.708Z,99.99
2018-05-02T19:31:01.702Z,99.99
2018-05-02T19:32:01.697Z,99.99
2018-05-02T19:33:01.692Z,99.99
2018-05-02T19:34:01.688Z,99.99
2018-05-02T19:35:01.686Z,99.99
2018-05-02T19:36:01.675Z,99.99
2018-05-02T19:37:01.671Z,99.99
2018-05-02T19:38:01.667Z,99.99
2018-05-02T19:39:01.662Z,99.99
2018-05-02T19:40:01.653Z,99.99
2018-05-02T19:41:01.646Z,99.99
2018-05-02T19:42:01.640Z,99.99
2018-05-02T19:43:01.634Z,99.99
2018-05-02T19:44:01.830Z,99.99
2018-05-02T19:45:01.623Z,99.99
2018-05-02T19:46:01.618Z,99.99
2018-05-02T19:47:01.613Z,99.99
2018-05-02T19:48:01.607Z,99.99
2018-05-02T19:49:01.601Z,99.99
2018-05-02T19:50:01.597Z,99.99
2018-05-02T19:51:01.663Z,99.99
2018-05-02T19:52:01.584Z,99.99
2018-05-02T19:53:01.579Z,99.99
2018-05-02T19:54:01.574Z,99.99
2018-05-02T19:55:01.568Z,99.99
2018-05-02T19:56:02.107Z,99.99
2018-05-02T19:57:01.559Z,99.99
2018-05-02T19:58:01.549Z,99.99
2018-05-02T19:59:01.543Z,99.99
2018-05-02T20:00:01.538Z,99.99
2018-05-02T20:01:01.533Z,99.99
2018-05-02T20:02:01.527Z,99.99
2018-05-02T20:03:01.522Z,99.99
2018-05-02T20:04:01.514Z,99.99
2018-05-02T20:05:01.509Z,99.99
2018-05-02T20:06:01.502Z,99.99
2018-05-02T20:07:01.497Z,99.99
2018-05-02T20:08:01.491Z,99.99
2018-05-02T20:09:01.487Z,99.99
2018-05-02T20:10:01.478Z,99.99
2018-05-02T20:11:01.472Z,99.99
2018-05-02T20:12:01.465Z,99.99
2018-05-02T20:13:01.461Z,99.99
2018-05-02T20:14:01.454Z,99.99
2018-05-02T20:15:01.450Z,99.99
2018-05-02T20:16:01.442Z,99.99
2018-05-02T20:17:01.435Z,99.99
2018-05-02T20:18:01.430Z,99.99
2018-05-02T20:19:01.477Z,99.99
2018-05-02T20:20:01.421Z,99.99
2018-05-02T20:21:01.411Z,99.99
2018-05-02T20:22:01.422Z,99.99
2018-05-02T20:23:01.446Z,99.99
2018-05-02T20:24:01.392Z,99.99
2018-05-02T20:25:01.387Z,99.99
2018-05-02T20:26:01.381Z,99.99
2018-05-02T20:27:01.374Z,99.99
2018-05-02T20:28:01.367Z,99.99
2018-05-02T20:29:01.361Z,99.99
2018-05-02T20:30:01.385Z,99.99
2018-05-02T20:31:01.353Z,99.99
2018-05-02T20:32:01.346Z,99.99
2018-05-02T20:33:01.338Z,99.99
2018-05-02T20:34:01.331Z,99.99
2018-05-02T20:35:01.324Z,99.99
2018-05-02T20:36:01.317Z,99.99
2018-05-02T20:37:01.311Z,99.99
2018-05-02T20:38:01.305Z,99.99
2018-05-02T20:39:01.299Z,99.99
2018-05-02T20:40:01.292Z,99.99
2018-05-02T20:41:01.291Z,99.99
2018-05-02T20:42:01.294Z,99.99
2018-05-02T20:43:01.273Z,99.99
2018-05-02T20:44:01.285Z,99.99
2018-05-02T20:45:01.260Z,99.99
2018-05-02T20:46:01.254Z,99.99
2018-05-02T20:47:01.245Z,99.99
2018-05-02T20:48:01.240Z,99.99
2018-05-02T20:49:01.235Z,99.99
2018-05-02T20:50:01.228Z,99.99
2018-05-02T20:51:01.222Z,99.99
2018-05-02T20:52:01.215Z,99.99
2018-05-02T20:53:01.207Z,99.99
2018-05-02T20:54:01.200Z,99.99
2018-05-02T20:55:01.304Z,99.99
2018-05-02T20:56:01.189Z,99.99
2018-05-02T20:57:01.181Z,99.99
2018-05-02T20:58:01.174Z,99.99
2018-05-02T20:59:01.166Z,99.99
2018-05-02T21:00:01.160Z,99.99
2018-05-02T21:01:01.154Z,99.99
2018-05-02T21:02:01.147Z,99.99
2018-05-02T21:03:01.139Z,99.99
2018-05-02T21:04:01.134Z,99.99
2018-05-02T21:05:01.127Z,99.99
2018-05-02T21:06:01.120Z,99.99
2018-05-02T21:07:01.113Z,99.99
2018-05-02T21:08:01.107Z,99.99
2018-05-02T21:09:01.101Z,99.99
2018-05-02T21:10:01.096Z,99.99
2018-05-02T21:11:01.088Z,99.99
2018-05-02T21:12:01.080Z,99.99
2018-05-02T21:13:01.073Z,99.99
2018-05-02T21:14:01.069Z,99.99
2018-05-02T21:15:01.062Z,99.99
2018-05-02T21:16:01.055Z,99.99
2018-05-02T21:17:01.049Z,99.99
2018-05-02T21:18:01.041Z,99.99
2018-05-02T21:19:01.035Z,99.99
2018-05-02T21:20:01.028Z,99.99
2018-05-02T21:21:01.023Z,99.99
2018-05-02T21:22:01.017Z,99.99
2018-05-02T21:23:01.010Z,99.99
2018-05-02T21:24:01.002Z,99.99
2018-05-02T21:25:00.997Z,99.99
2018-05-02T21:26:00.990Z,99.99
2018-05-02T21:27:00.982Z,99.99
2018-05-02T21:28:00.974Z,99.99
2018-05-02T21:29:00.968Z,99.99
2018-05-02T21:30:00.962Z,99.99
2018-05-02T21:31:01.018Z,99.99
2018-05-02T21:32:00.948Z,99.99
2018-05-02T21:33:00.946Z,99.99
2018-05-02T21:34:00.936Z,99.99
2018-05-02T21:35:00.928Z,99.99
2018-05-02T21:36:00.922Z,99.99
2018-05-02T21:37:00.918Z,99.99
2018-05-02T21:38:00.966Z,99.99
2018-05-02T21:39:00.902Z,99.99
2018-05-02T21:40:00.896Z,99.99
2018-05-02T21:41:00.888Z,99.99
2018-05-02T21:42:00.882Z,99.99
2018-05-02T21:43:00.875Z,99.99
2018-05-02T21:44:00.867Z,99.99
2018-05-02T21:45:00.866Z,99.99
2018-05-02T21:46:00.855Z,99.99
2018-05-02T21:47:00.851Z,99.99
2018-05-02T21:48:00.841Z,99.99
2018-05-02T21:49:00.834Z,99.99
2018-05-02T21:50:00.829Z,99.99
2018-05-02T21:51:00.822Z,99.99
2018-05-02T21:52:00.817Z,99.99
2018-05-02T21:53:00.809Z,99.99
2018-05-02T21:54:00.802Z,99.99
2018-05-02T21:55:00.794Z,99.99
2018-05-02T21:56:00.787Z,99.99
2018-05-02T21:57:00.781Z,99.99
2018-05-02T21:58:00.775Z,99.99
2018-05-02T21:59:00.767Z,99.99
2018-05-02T22:00:00.761Z,99.99
2018-05-02T22:01:00.755Z,99.99
2018-05-02T22:02:00.748Z,99.99
2018-05-02T22:03:00.740Z,99.99
2018-05-02T22:04:00.733Z,99.99
2018-05-02T22:05:00.727Z,99.99
2018-05-02T22:06:00.722Z,99.99
2018-05-02T22:07:00.714Z,99.99
2018-05-02T22:08:00.708Z,99.99
2018-05-02T22:09:00.770Z,99.99
2018-05-02T22:10:00.695Z,99.99
2018-05-02T22:11:00.687Z,99.99
2018-05-02T22:12:00.682Z,99.99
2018-05-02T22:13:00.674Z,99.99
2018-05-02T22:14:00.670Z,99.99
2018-05-02T22:15:00.662Z,99.99
2018-05-02T22:16:00.655Z,99.99
2018-05-02T22:17:00.648Z,99.99
2018-05-02T22:18:00.641Z,99.99
2018-05-02T22:19:00.633Z,99.99
2018-05-02T22:20:00.633Z,99.99
2018-05-02T22:21:00.621Z,99.99
2018-05-02T22:22:00.615Z,99.99
2018-05-02T22:23:00.608Z,99.99
2018-05-02T22:24:00.601Z,99.99
2018-05-02T22:25:00.596Z,99.99
2018-05-02T22:26:00.592Z,99.99
2018-05-02T22:27:00.580Z,99.99
2018-05-02T22:28:00.577Z,99.99
2018-05-02T22:29:00.568Z,99.99
2018-05-02T22:30:00.561Z,99.99
2018-05-02T22:31:00.555Z,99.99
2018-05-02T22:32:00.547Z,99.99
2018-05-02T22:33:00.542Z,99.99
2018-05-02T22:34:00.536Z,99.99
2018-05-02T22:35:00.531Z,99.99
2018-05-02T22:36:00.521Z,99.99
2018-05-02T22:37:00.514Z,99.99
2018-05-02T22:38:00.512Z,99.99
2018-05-02T22:39:00.502Z,99.99
2018-05-02T22:40:00.496Z,99.99
2018-05-02T22:41:00.490Z,99.99
2018-05-02T22:42:00.484Z,99.99
2018-05-02T22:43:00.475Z,99.99
2018-05-02T22:44:00.468Z,99.99
2018-05-02T22:45:00.462Z,99.99
2018-05-02T22:46:00.457Z,99.99
2018-05-02T22:47:00.454Z,99.99
2018-05-02T22:48:00.443Z,99.99
2018-05-02T22:49:00.436Z,99.99
2018-05-02T22:50:00.430Z,99.99
2018-05-02T22:51:00.424Z,99.99
2018-05-02T22:52:00.416Z,99.99
2018-05-02T22:53:00.410Z,99.99
2018-05-02T22:54:00.403Z,99.99
2018-05-02T22:55:00.397Z,99.99
2018-05-02T22:56:00.391Z,99.99
2018-05-02T22:57:00.385Z,99.99
2018-05-02T22:58:00.379Z,99.99
2018-05-02T22:59:00.382Z,99.99
2018-05-02T23:00:00.465Z,99.99
2018-05-02T23:01:00.360Z,99.99
2018-05-02T23:02:00.352Z,99.99
2018-05-02T23:03:00.346Z,99.99
2018-05-02T23:04:00.340Z,99.99
2018-05-02T23:05:00.334Z,99.99
2018-05-02T23:06:00.331Z,99.99
2018-05-02T23:07:00.319Z,99.99
2018-05-02T23:08:00.313Z,99.99
2018-05-02T23:09:00.308Z,99.99
2018-05-02T23:10:00.301Z,99.99
2018-05-02T23:11:00.293Z,99.99
2018-05-02T23:12:00.291Z,99.99
2018-05-02T23:13:00.282Z,99.99
2018-05-02T23:14:00.276Z,99.99
2018-05-02T23:15:00.268Z,99.99
2018-05-02T23:16:00.261Z,99.99
2018-05-02T23:17:00.255Z,99.99
2018-05-02T23:18:00.348Z,99.99
2018-05-02T23:19:00.241Z,99.99
2018-05-02T23:20:00.235Z,99.99
2018-05-02T23:21:00.230Z,99.99
2018-05-02T23:22:00.224Z,99.99
2018-05-02T23:23:00.215Z,99.99
2018-05-02T23:24:00.210Z,99.99
2018-05-02T23:25:00.202Z,99.99
2018-05-02T23:26:00.209Z,99.99
2018-05-02T23:27:00.199Z,99.99
2018-05-02T23:28:00.192Z,99.99
2018-05-02T23:29:00.187Z,99.99
2018-05-02T23:30:00.380Z,99.99
2018-05-02T23:31:00.173Z,99.99
2018-05-02T23:32:00.166Z,99.99
2018-05-02T23:33:00.158Z,99.99
2018-05-02T23:34:00.152Z,99.99
2018-05-02T23:35:00.144Z,99.99
2018-05-02T23:36:00.139Z,99.99
2018-05-02T23:37:00.133Z,99.99
2018-05-02T23:38:00.127Z,99.99
2018-05-02T23:39:00.121Z,99.99
2018-05-02T23:40:00.118Z,99.99
2018-05-02T23:41:00.107Z,99.99
2018-05-02T23:42:00.099Z,99.99
2018-05-02T23:43:00.093Z,99.99
2018-05-02T23:44:00.092Z,99.99
2018-05-02T23:45:00.080Z,99.99
2018-05-02T23:46:00.074Z,99.99
2018-05-02T23:47:00.065Z,99.99
2018-05-02T23:48:00.060Z,99.99
2018-05-02T23:49:00.054Z,99.99
2018-05-02T23:50:00.052Z,99.99
2018-05-02T23:51:00.039Z,99.99
2018-05-02T23:52:00.032Z,99.99
2018-05-02T23:53:00.025Z,99.99
2018-05-02T23:54:00.021Z,99.99
2018-05-02T23:55:00.012Z,99.99
2018-05-02T23:56:00.007Z,99.99
2018-05-02T23:57:00.000Z,99.99
2018-05-02T23:57:59.992Z,99.99
2018-05-02T23:58:59.985Z,99.99
2018-05-02T23:59:59.983Z,99.99
